Time;durP1;ratioP1;P1;durP2;ratioP2;P2;SDS_P1;SDS_P2;PMS_P1;PMS_P2;Temp;Humidity;BMP_temperature;BMP_pressure;BME280_temperature;BME280_humidity;BME280_pressure;Samples;Min_cycle;Max_cycle;Signal;HPM_P1;HPM_P2
2022/04/21 00:01:58;;;;;;;;;10.50;10.50;;;27.20;97317.22;;;;116802;1197;25032;-64
2022/04/21 00:04:28;;;;;;;;;12.50;7.50;;;27.18;97317.79;;;;116776;1197;25160;-63
2022/04/21 00:06:55;;;;;;;;;8.33;8.00;;;27.14;97318.58;;;;116882;1197;25643;-65
2022/04/21 00:09:26;;;;;;;;;12.75;10.75;;;27.15;97317.20;;;;116834;1196;25328;-64
2022/04/21 00:11:58;;;;;;;;;11.25;10.50;;;27.14;97318.09;;;;116848;1198;25211;-63
2022/04/21 00:14:25;;;;;;;;;11.75;9.75;;;27.12;97315.55;;;;116769;1197;25694;-64
2022/04/21 00:16:54;;;;;;;;;16.33;14.00;;;27.09;97316.22;;;;116900;1197;25758;-63
2022/04/21 00:19:22;;;;;;;;;11.67;10.33;;;27.08;97313.60;;;;116892;1195;25029;-63
2022/04/21 00:24:39;;;;;;;;;13.33;11.00;;;27.07;97311.17;;;;116975;1197;25632;-65
2022/04/21 00:27:11;;;;;;;;;9.00;7.00;;;27.08;97311.73;;;;116887;1196;26046;-65
2022/04/21 00:29:39;;;;;;;;;11.33;10.67;;;27.08;97311.98;;;;116825;1197;24985;-63
2022/04/21 00:32:07;;;;;;;;;16.50;10.50;;;27.06;97309.27;;;;116828;1198;25485;-64
2022/04/21 00:34:35;;;;;;;;;9.25;8.25;;;27.05;97308.00;;;;116867;1195;26208;-63
2022/04/21 00:37:04;;;;;;;;;13.75;10.50;;;27.04;97310.41;;;;116767;1195;25870;-64
2022/04/21 00:39:32;;;;;;;;;17.00;11.00;;;27.03;97309.73;;;;116890;1197;25459;-63
2022/04/21 00:42:02;;;;;;;;;11.00;9.00;;;27.03;97311.20;;;;116879;1197;25525;-63
2022/04/21 00:44:33;;;;;;;;;11.00;10.00;;;27.03;97309.84;;;;116850;1196;24935;-64
2022/04/21 00:47:03;;;;;;;;;11.25;10.25;;;27.01;97311.16;;;;116875;1197;24818;-64
2022/04/21 00:49:34;;;;;;;;;16.75;11.75;;;27.01;97313.66;;;;116769;1197;25482;-65
2022/04/21 00:52:03;;;;;;;;;17.50;11.25;;;26.97;97318.44;;;;116885;1196;24902;-64
2022/04/21 00:54:32;;;;;;;;;16.25;12.25;;;26.99;97313.55;;;;116895;1196;25354;-64
2022/04/21 00:57:03;;;;;;;;;13.67;13.33;;;26.97;97315.55;;;;116907;1196;25418;-64
2022/04/21 00:59:33;;;;;;;;;11.33;9.33;;;26.98;97317.42;;;;116804;1196;25422;-64
2022/04/21 01:04:51;;;;;;;;;11.50;11.00;;;27.00;97317.86;;;;116852;1197;24815;-65
2022/04/21 01:07:20;;;;;;;;;13.33;12.33;;;26.96;97317.52;;;;116865;1197;26265;-66
2022/04/21 01:09:47;;;;;;;;;13.50;9.50;;;26.94;97319.31;;;;116896;1197;25762;-65
2022/04/21 01:12:16;;;;;;;;;10.67;7.67;;;26.93;97318.05;;;;116908;1197;25046;-65
2022/04/21 01:14:44;;;;;;;;;14.33;14.33;;;26.92;97318.66;;;;116851;1197;25425;-64
2022/04/21 01:17:15;;;;;;;;;16.00;11.25;;;26.91;97318.97;;;;117005;1197;24789;-66
2022/04/21 01:19:43;;;;;;;;;16.00;13.50;;;26.94;97318.06;;;;116774;1197;25085;-65
2022/04/21 01:22:13;;;;;;;;;12.25;9.00;;;26.90;97321.34;;;;116796;1197;25382;-64
2022/04/21 01:24:41;;;;;;;;;10.67;10.67;;;26.87;97320.27;;;;116868;1197;25772;-65
2022/04/21 01:27:10;;;;;;;;;14.00;13.67;;;26.85;97321.38;;;;116995;1197;26315;-64
2022/04/21 01:29:38;;;;;;;;;12.00;10.50;;;26.88;97322.27;;;;116870;1196;25979;-64
2022/04/21 01:32:09;;;;;;;;;15.00;13.33;;;26.87;97320.57;;;;116908;1196;25201;-64
2022/04/21 01:34:38;;;;;;;;;9.67;8.33;;;26.88;97320.76;;;;116858;1198;25554;-64
2022/04/21 01:42:41;;;;;;;;;9.00;8.75;;;26.94;97317.55;;;;116865;1197;25296;-64
2022/04/21 01:45:09;;;;;;;;;14.25;10.50;;;26.94;97316.67;;;;116827;1197;26092;-65
2022/04/21 01:47:38;;;;;;;;;9.25;9.25;;;26.93;97318.40;;;;116800;1197;25539;-63
2022/04/21 01:50:07;;;;;;;;;12.25;9.75;;;26.92;97312.23;;;;116935;1196;25350;-64
2022/04/21 01:52:37;;;;;;;;;11.25;9.00;;;26.95;97313.81;;;;116859;1196;25485;-63
2022/04/21 01:55:07;;;;;;;;;9.00;9.00;;;26.97;97316.79;;;;116967;1197;24937;-64
2022/04/21 01:57:35;;;;;;;;;10.50;8.50;;;27.02;97311.77;;;;116915;1196;25626;-63
2022/04/21 02:00:05;;;;;;;;;9.00;8.75;;;27.04;97312.90;;;;116784;1197;25745;-63
2022/04/21 02:02:35;;;;;;;;;10.00;10.00;;;27.02;97314.12;;;;116886;1197;24920;-64
2022/04/21 02:05:04;;;;;;;;;10.33;8.67;;;27.02;97311.17;;;;116814;1197;25689;-65
2022/04/21 02:07:32;;;;;;;;;13.50;9.00;;;27.00;97310.95;;;;116880;1197;24834;-63
2022/04/21 02:10:01;;;;;;;;;10.67;9.67;;;27.01;97313.06;;;;116807;1197;24960;-65
2022/04/21 02:12:28;;;;;;;;;11.50;8.00;;;27.00;97313.73;;;;116844;1196;25216;-64
2022/04/21 02:15:01;;;;;;;;;11.33;10.00;;;27.00;97314.00;;;;116819;1197;25347;-63
2022/04/21 02:17:31;;;;;;;;;13.50;12.00;;;27.00;97312.69;;;;116864;1197;25429;-63
2022/04/21 02:20:00;;;;;;;;;10.00;9.75;;;27.01;97314.32;;;;116697;1197;25706;-63
2022/04/21 02:22:28;;;;;;;;;8.33;8.33;;;27.02;97312.51;;;;116870;1196;25338;-63
2022/04/21 02:24:55;;;;;;;;;14.00;9.75;;;27.01;97313.24;;;;116792;1196;25351;-63
2022/04/21 02:27:23;;;;;;;;;8.50;8.00;;;26.98;97316.27;;;;116833;1197;25244;-64
2022/04/21 02:29:52;;;;;;;;;11.00;10.67;;;26.97;97315.40;;;;116749;1198;25715;-64
2022/04/21 02:32:21;;;;;;;;;7.50;7.50;;;26.96;97320.16;;;;116844;1197;24844;-64
2022/04/21 02:34:49;;;;;;;;;10.67;9.00;;;26.96;97318.88;;;;116742;1197;25717;-64
2022/04/21 02:37:26;;;;;;;;;10.67;9.33;;;26.96;97320.98;;;;116929;1196;25083;-64
2022/04/21 02:39:54;;;;;;;;;10.75;8.75;;;26.99;97321.35;;;;116744;1197;25475;-64
2022/04/21 02:42:24;;;;;;;;;17.00;11.67;;;27.01;97317.27;;;;116884;1197;25792;-65
2022/04/21 02:44:52;;;;;;;;;9.50;9.00;;;27.01;97319.90;;;;116849;1197;24826;-64
2022/04/21 02:47:19;;;;;;;;;8.00;8.00;;;26.98;97323.04;;;;116870;1197;24802;-64
2022/04/21 02:49:48;;;;;;;;;8.25;8.00;;;26.97;97326.43;;;;116923;1197;24976;-64
2022/04/21 02:52:16;;;;;;;;;10.00;10.00;;;26.98;97319.39;;;;116849;1198;24956;-64
2022/04/21 02:57:31;;;;;;;;;16.67;12.33;;;26.95;97326.24;;;;116877;1196;25040;-64
2022/04/21 03:00:06;;;;;;;;;11.50;10.50;;;26.96;97327.41;;;;116932;1196;25642;-64
2022/04/21 03:02:34;;;;;;;;;12.67;10.00;;;26.98;97325.67;;;;116980;1196;26566;-63
2022/04/21 03:05:02;;;;;;;;;13.75;11.00;;;27.02;97322.20;;;;116888;1196;27171;-63
2022/04/21 03:07:30;;;;;;;;;11.25;9.25;;;26.97;97321.42;;;;116795;1197;26300;-63
2022/04/21 03:09:58;;;;;;;;;9.25;9.25;;;26.94;97322.25;;;;116741;1198;25259;-64
2022/04/21 03:12:28;;;;;;;;;14.00;9.00;;;26.95;97320.27;;;;116908;1196;25531;-63
2022/04/21 03:15:00;;;;;;;;;11.00;8.67;;;26.98;97319.48;;;;116781;1197;24924;-65
2022/04/21 03:17:29;;;;;;;;;11.00;9.67;;;26.96;97321.83;;;;116906;1198;27215;-63
2022/04/21 03:19:59;;;;;;;;;18.25;14.00;;;26.94;97324.52;;;;116875;1197;25081;-64
2022/04/21 03:25:15;;;;;;;;;12.00;10.50;;;26.87;97324.59;;;;116962;1196;25141;-66
2022/04/21 03:27:46;;;;;;;;;16.00;12.00;;;26.89;97325.79;;;;117054;1196;25288;-65
2022/04/21 03:30:16;;;;;;;;;8.33;7.33;;;26.89;97325.77;;;;116855;1196;25001;-64
2022/04/21 03:32:43;;;;;;;;;13.50;12.50;;;26.84;97321.95;;;;117132;1197;25420;-64
2022/04/21 03:35:14;;;;;;;;;10.67;8.67;;;26.87;97322.83;;;;117143;1197;25775;-61
2022/04/21 03:37:42;;;;;;;;;14.00;12.67;;;26.95;97322.27;;;;116803;1196;25750;-61
2022/04/21 03:40:11;;;;;;;;;17.50;14.00;;;26.90;97319.59;;;;116766;1197;25390;-63
2022/04/21 03:42:43;;;;;;;;;11.25;9.75;;;26.77;97320.64;;;;116901;1197;24737;-62
2022/04/21 03:45:11;;;;;;;;;13.50;13.50;;;26.73;97318.85;;;;116918;1196;25159;-62
2022/04/21 03:47:39;;;;;;;;;13.75;13.75;;;26.69;97314.54;;;;116931;1197;25381;-60
2022/04/21 03:50:08;;;;;;;;;15.67;13.67;;;26.64;97316.48;;;;116834;1197;25145;-63
2022/04/21 03:52:36;;;;;;;;;11.25;9.50;;;26.62;97317.72;;;;116891;1196;25659;-61
2022/04/21 03:55:04;;;;;;;;;11.25;10.75;;;26.63;97317.60;;;;117003;1197;26330;-62
2022/04/21 03:57:32;;;;;;;;;14.00;12.00;;;26.67;97317.54;;;;116966;1196;26451;-62
2022/04/21 04:00:00;;;;;;;;;15.50;12.50;;;26.69;97319.34;;;;116922;1196;25762;-62
2022/04/21 04:02:29;;;;;;;;;18.75;14.50;;;26.70;97318.70;;;;116941;1196;24915;-66
2022/04/21 04:04:57;;;;;;;;;13.33;12.00;;;26.76;97316.42;;;;116983;1197;25285;-63
2022/04/21 04:12:59;;;;;;;;;19.00;17.67;;;26.83;97313.87;;;;116846;1196;25502;-61
2022/04/21 04:15:48;;;;;;;;;13.00;11.75;;;26.77;97310.85;;;;116981;1197;25140;-62
2022/04/21 04:18:19;;;;;;;;;13.50;11.50;;;26.78;97304.27;;;;116915;1197;24839;-62
2022/04/21 04:20:47;;;;;;;;;17.50;15.50;;;26.80;97301.48;;;;117096;1197;25764;-60
2022/04/21 04:23:19;;;;;;;;;12.33;12.33;;;26.83;97301.23;;;;117025;1197;24805;-59
2022/04/21 04:25:48;;;;;;;;;15.50;13.25;;;26.85;97299.12;;;;116981;1197;25717;-62
2022/04/21 04:28:18;;;;;;;;;18.50;15.50;;;26.86;97298.65;;;;116838;1196;24819;-62
2022/04/21 04:30:46;;;;;;;;;14.50;12.00;;;26.84;97301.86;;;;117000;1196;25283;-58
2022/04/21 04:33:15;;;;;;;;;15.33;10.33;;;26.86;97297.56;;;;116835;1196;25244;-62
2022/04/21 04:35:43;;;;;;;;;19.50;11.75;;;26.87;97295.66;;;;116950;1197;25422;-59
2022/04/21 04:38:14;;;;;;;;;15.25;12.25;;;26.88;97296.39;;;;116716;1196;24934;-61
2022/04/21 04:40:41;;;;;;;;;14.00;10.50;;;26.87;97293.89;;;;116708;1196;25376;-62
2022/04/21 04:43:09;;;;;;;;;16.00;10.50;;;26.89;97293.84;;;;116694;1196;25328;-62
2022/04/21 04:48:23;;;;;;;;;14.75;12.25;;;26.91;97291.23;;;;116827;1197;25456;-62
2022/04/21 04:50:51;;;;;;;;;14.50;11.50;;;26.90;97290.32;;;;116810;1196;25299;-61
2022/04/21 04:53:19;;;;;;;;;15.00;10.00;;;26.88;97285.88;;;;116835;1196;25962;-60
2022/04/21 04:55:47;;;;;;;;;16.00;12.67;;;26.88;97284.11;;;;116827;1196;25025;-61
2022/04/21 04:58:14;;;;;;;;;16.50;10.25;;;26.86;97281.06;;;;116828;1196;26321;-61
2022/04/21 05:00:43;;;;;;;;;13.00;10.50;;;26.85;97284.25;;;;116903;1197;25051;-59
2022/04/21 05:03:12;;;;;;;;;14.25;10.75;;;26.87;97282.45;;;;116857;1197;25449;-62
2022/04/21 05:05:39;;;;;;;;;13.75;11.25;;;26.87;97279.52;;;;116841;1197;26677;-59
2022/04/21 05:08:08;;;;;;;;;11.00;8.67;;;26.85;97280.32;;;;116828;1197;25302;-61
2022/04/21 05:10:36;;;;;;;;;17.00;15.50;;;26.86;97278.95;;;;116857;1197;25441;-60
2022/04/21 05:13:04;;;;;;;;;13.00;11.00;;;26.86;97279.17;;;;116820;1197;25476;-61
2022/04/21 05:15:32;;;;;;;;;16.67;11.67;;;26.86;97277.30;;;;116876;1197;25336;-59
2022/04/21 05:18:01;;;;;;;;;15.50;13.50;;;26.85;97279.92;;;;117116;1197;25674;-58
2022/04/21 05:20:30;;;;;;;;;14.00;13.00;;;26.93;97281.86;;;;116866;1196;24785;-60
2022/04/21 05:23:07;;;;;;;;;15.33;13.00;;;26.94;97281.02;;;;116868;1197;24820;-60
2022/04/21 05:25:40;;;;;;;;;19.25;15.75;;;26.88;97280.69;;;;116809;1196;24913;-62
2022/04/21 05:28:09;;;;;;;;;13.50;9.75;;;26.85;97279.69;;;;117026;1197;25837;-59
2022/04/21 05:30:58;;;;;;;;;14.00;13.75;;;26.86;97277.09;;;;116932;1196;26425;-60
2022/04/21 05:33:29;;;;;;;;;17.50;14.75;;;26.85;97277.54;;;;116923;1196;25519;-62
2022/04/21 05:35:58;;;;;;;;;12.00;12.00;;;26.83;97276.90;;;;116874;1197;25453;-61
2022/04/21 05:38:27;;;;;;;;;14.00;13.33;;;26.81;97276.95;;;;116905;1196;24916;-61
2022/04/21 05:40:55;;;;;;;;;14.25;12.25;;;26.89;97277.27;;;;116683;1196;26024;-63
2022/04/21 05:43:30;;;;;;;;;14.33;11.67;;;26.88;97277.45;;;;116809;1197;25576;-61
2022/04/21 05:46:00;;;;;;;;;15.67;11.67;;;26.89;97279.03;;;;116977;1197;25779;-60
2022/04/21 05:48:28;;;;;;;;;17.75;16.00;;;26.95;97281.05;;;;116869;1197;25698;-60
2022/04/21 05:50:59;;;;;;;;;15.75;12.75;;;26.99;97280.08;;;;116792;1196;25041;-63
2022/04/21 05:53:36;;;;;;;;;15.33;13.33;;;27.02;97282.61;;;;116751;1197;25266;-63
2022/04/21 05:56:08;;;;;;;;;17.33;15.00;;;27.01;97279.33;;;;116888;1196;24750;-60
2022/04/21 05:58:36;;;;;;;;;15.75;11.75;;;27.03;97280.83;;;;116883;1197;25361;-60
2022/04/21 06:01:11;;;;;;;;;16.50;13.25;;;27.05;97282.25;;;;117043;1197;25362;-60
2022/04/21 06:03:42;;;;;;;;;13.50;13.00;;;27.06;97284.25;;;;116764;1196;25637;-61
2022/04/21 06:06:10;;;;;;;;;15.00;13.00;;;27.01;97286.52;;;;116948;1197;25154;-59
2022/04/21 06:08:39;;;;;;;;;15.00;14.75;;;27.03;97284.75;;;;117119;1197;24883;-59
2022/04/21 06:11:09;;;;;;;;;13.00;11.00;;;27.11;97282.68;;;;116789;1197;25648;-63
2022/04/21 06:13:37;;;;;;;;;15.67;12.33;;;27.13;97283.23;;;;116845;1197;24977;-64
2022/04/21 06:16:05;;;;;;;;;19.50;18.50;;;27.11;97282.38;;;;117039;1197;26414;-62
2022/04/21 06:18:33;;;;;;;;;25.00;24.00;;;27.17;97281.33;;;;116964;1197;25555;-63
2022/04/21 06:21:01;;;;;;;;;40.00;35.00;;;27.17;97278.45;;;;116878;1197;25176;-61
2022/04/21 06:23:30;;;;;;;;;32.50;29.00;;;27.19;97280.52;;;;116885;1195;25272;-61
2022/04/21 06:25:59;;;;;;;;;39.67;37.67;;;27.18;97287.41;;;;116820;1197;24737;-61
2022/04/21 06:28:27;;;;;;;;;38.50;33.50;;;27.15;97287.80;;;;116786;1197;25669;-61
2022/04/21 06:30:55;;;;;;;;;42.50;35.00;;;27.14;97286.70;;;;116643;1197;25418;-62
2022/04/21 06:33:32;;;;;;;;;39.00;33.00;;;27.14;97287.36;;;;116817;1197;25585;-63
2022/04/21 06:36:03;;;;;;;;;19.75;19.75;;;27.22;97290.66;;;;116761;1197;26453;-62
2022/04/21 06:38:34;;;;;;;;;21.25;21.25;;;27.25;97291.46;;;;117044;1197;25723;-58
2022/04/21 06:41:08;;;;;;;;;27.00;23.67;;;27.38;97289.74;;;;116717;1197;25288;-62
2022/04/21 06:49:28;;;;;;;;;15.25;12.25;;;27.31;97291.66;;;;116499;1197;26578;-56
2022/04/21 06:51:56;;;;;;;;;17.33;13.67;;;27.23;97294.15;;;;116714;1197;24928;-58
2022/04/21 06:54:24;;;;;;;;;16.67;16.67;;;27.16;97293.51;;;;116817;1197;25603;-56
2022/04/21 06:56:53;;;;;;;;;16.00;13.67;;;27.08;97292.23;;;;117137;1196;25336;-59
2022/04/21 06:59:20;;;;;;;;;18.00;15.33;;;27.14;97296.38;;;;116907;1196;25279;-57
2022/04/21 07:01:48;;;;;;;;;15.50;14.50;;;27.15;97294.11;;;;116845;1196;25408;-58
2022/04/21 07:04:17;;;;;;;;;17.33;14.33;;;27.11;97294.70;;;;117002;1197;25329;-56
2022/04/21 07:06:46;;;;;;;;;21.50;15.50;;;27.12;97289.42;;;;117006;1198;25632;-57
2022/04/21 07:09:15;;;;;;;;;17.00;15.50;;;27.17;97293.42;;;;116999;1197;25682;-58
2022/04/21 07:11:43;;;;;;;;;25.00;24.00;;;27.18;97297.90;;;;116983;1196;26907;-58
2022/04/21 07:14:11;;;;;;;;;25.33;23.33;;;27.19;97300.45;;;;116986;1197;25619;-56
2022/04/21 07:16:39;;;;;;;;;21.33;21.33;;;27.17;97300.42;;;;116917;1197;25178;-56
2022/04/21 07:19:06;;;;;;;;;21.50;19.50;;;27.18;97300.65;;;;116914;1197;26262;-58
2022/04/21 07:21:36;;;;;;;;;25.75;22.00;;;27.17;97298.02;;;;116897;1196;25455;-61
2022/04/21 07:24:04;;;;;;;;;28.00;24.00;;;27.18;97296.63;;;;116888;1197;25266;-54
2022/04/21 07:26:32;;;;;;;;;28.50;27.00;;;27.13;97301.35;;;;116957;1196;25902;-53
2022/04/21 07:29:00;;;;;;;;;27.67;22.67;;;27.10;97302.05;;;;117096;1196;25237;-50
2022/04/21 07:31:28;;;;;;;;;28.33;23.33;;;27.10;97302.35;;;;116987;1197;25150;-55
2022/04/21 07:33:59;;;;;;;;;24.33;20.33;;;27.13;97301.48;;;;117125;1198;26325;-55
2022/04/21 07:36:27;;;;;;;;;24.00;23.00;;;27.23;97299.39;;;;116928;1197;25321;-56
2022/04/21 07:38:55;;;;;;;;;24.75;17.50;;;27.23;97297.14;;;;117032;1196;24736;-55
2022/04/21 07:41:23;;;;;;;;;27.67;20.67;;;27.23;97297.02;;;;116856;1197;24784;-56
2022/04/21 07:43:52;;;;;;;;;22.33;19.00;;;27.20;97300.96;;;;116825;1197;25885;-53
2022/04/21 07:46:20;;;;;;;;;23.00;19.50;;;27.19;97300.54;;;;116833;1195;24999;-51
2022/04/21 07:51:36;;;;;;;;;27.00;21.00;;;27.21;97306.36;;;;116749;1198;24809;-50
2022/04/21 07:54:04;;;;;;;;;23.50;23.00;;;27.18;97298.60;;;;116921;1196;25651;-57
2022/04/21 07:56:31;;;;;;;;;18.00;17.00;;;27.19;97297.83;;;;116832;1197;25398;-53
2022/04/21 07:58:59;;;;;;;;;19.00;16.67;;;27.18;97299.71;;;;116903;1197;25632;-56
2022/04/21 08:01:27;;;;;;;;;29.00;23.33;;;27.20;97298.66;;;;116779;1196;25433;-52
2022/04/21 08:03:54;;;;;;;;;28.00;26.33;;;27.13;97301.64;;;;116932;1196;24959;-61
2022/04/21 08:06:22;;;;;;;;;18.00;16.00;;;27.13;97301.58;;;;116925;1197;25286;-59
2022/04/21 08:08:50;;;;;;;;;31.00;24.50;;;27.15;97301.58;;;;116860;1196;25228;-57
2022/04/21 08:11:18;;;;;;;;;26.33;22.67;;;27.15;97304.17;;;;116768;1197;25380;-64
2022/04/21 08:13:47;;;;;;;;;26.50;22.50;;;27.11;97307.08;;;;116826;1197;24950;-56
2022/04/21 08:16:15;;;;;;;;;23.75;19.75;;;27.07;97305.88;;;;116886;1197;25513;-59
2022/04/21 08:18:43;;;;;;;;;26.50;23.00;;;27.08;97303.38;;;;116985;1196;25466;-57
2022/04/21 08:21:12;;;;;;;;;26.00;24.67;;;27.15;97305.19;;;;116595;1197;25283;-60
2022/04/21 08:32:33;;;;;;;;;22.33;21.33;;;27.20;97304.71;;;;116656;1197;26582;-60
2022/04/21 08:33:04;;;;;;;;;28.00;27.50;;;27.27;97303.91;;;;116953;1197;25230;-58
2022/04/21 08:35:36;;;;;;;;;19.00;17.00;;;27.26;97304.79;;;;116940;1196;25566;-57
2022/04/21 08:38:06;;;;;;;;;25.67;23.00;;;27.23;97306.05;;;;116826;1196;25124;-60
2022/04/21 08:40:45;;;;;;;;;24.33;20.00;;;27.19;97306.33;;;;116916;1197;25612;-54
2022/04/21 08:43:17;;;;;;;;;25.00;18.50;;;27.23;97308.34;;;;116955;1197;24904;-55
2022/04/21 08:45:46;;;;;;;;;24.33;21.33;;;27.24;97312.92;;;;116937;1196;24807;-54
2022/04/21 08:48:20;;;;;;;;;26.00;24.00;;;27.25;97313.94;;;;116773;1197;25203;-57
2022/04/21 08:50:54;;;;;;;;;27.75;23.00;;;27.25;97314.08;;;;116828;1197;25195;-61
2022/04/21 08:53:27;;;;;;;;;22.50;22.00;;;27.24;97312.52;;;;116937;1196;25232;-56
2022/04/21 08:55:57;;;;;;;;;29.67;24.00;;;27.27;97321.08;;;;116894;1196;25247;-60
2022/04/21 08:58:27;;;;;;;;;20.33;17.67;;;27.27;97317.38;;;;116796;1198;24918;-58
2022/04/21 09:00:57;;;;;;;;;23.33;17.33;;;27.28;97319.20;;;;116752;1197;24765;-61
2022/04/21 09:03:26;;;;;;;;;20.75;18.25;;;27.23;97320.17;;;;116978;1197;25696;-57
2022/04/21 09:05:53;;;;;;;;;26.33;20.67;;;27.28;97318.43;;;;116853;1197;25238;-61
2022/04/21 09:08:24;;;;;;;;;22.67;21.00;;;27.25;97322.62;;;;116970;1198;24862;-63
2022/04/21 09:11:09;;;;;;;;;20.00;19.00;;;27.29;97318.98;;;;116827;1197;25040;-60
2022/04/21 09:13:44;;;;;;;;;26.50;20.00;;;27.28;97315.09;;;;116762;1197;24886;-57
2022/04/21 09:16:20;;;;;;;;;25.33;20.67;;;27.26;97309.43;;;;116790;1197;25325;-58
2022/04/21 09:19:01;;;;;;;;;23.67;20.67;;;27.26;97313.90;;;;116818;1196;26252;-54
2022/04/21 09:21:37;;;;;;;;;17.25;15.75;;;27.28;97312.39;;;;116961;1197;24948;-56
2022/04/21 09:24:18;;;;;;;;;17.00;17.00;;;27.31;97310.49;;;;116830;1197;25135;-58
2022/04/21 09:26:46;;;;;;;;;21.00;21.00;;;27.30;97306.26;;;;116921;1196;25699;-55
2022/04/21 09:29:26;;;;;;;;;19.67;18.00;;;27.32;97308.33;;;;116713;1198;24836;-61
2022/04/21 09:31:58;;;;;;;;;22.33;20.00;;;27.30;97306.02;;;;116879;1198;24864;-58
2022/04/21 09:34:37;;;;;;;;;17.25;17.25;;;27.33;97303.77;;;;116844;1196;25691;-55
2022/04/21 09:37:07;;;;;;;;;17.67;17.00;;;27.33;97299.64;;;;116839;1197;25153;-64
2022/04/21 09:39:39;;;;;;;;;23.00;18.50;;;27.32;97298.83;;;;117084;1196;25630;-55
2022/04/21 09:42:08;;;;;;;;;17.25;16.25;;;27.40;97299.79;;;;116797;1197;26403;-57
2022/04/21 09:47:32;;;;;;;;;17.50;16.00;;;27.50;97299.79;;;;116715;1197;25425;-56
2022/04/21 09:50:12;;;;;;;;;14.00;12.33;;;27.49;97297.48;;;;116686;1197;25182;-57
2022/04/21 09:52:50;;;;;;;;;14.25;14.25;;;27.43;97297.36;;;;116734;1196;25201;-54
2022/04/21 09:55:21;;;;;;;;;15.67;15.67;;;27.42;97297.07;;;;116799;1196;25443;-59
2022/04/21 09:57:53;;;;;;;;;17.75;15.50;;;27.30;97293.47;;;;116846;1197;25127;-59
2022/04/21 10:00:21;;;;;;;;;17.50;16.00;;;27.38;97291.27;;;;116805;1196;25563;-59
2022/04/21 10:02:51;;;;;;;;;17.75;16.25;;;27.34;97292.85;;;;116904;1197;25447;-57
2022/04/21 10:05:21;;;;;;;;;19.00;19.00;;;27.31;97300.21;;;;116776;1197;25638;-62
2022/04/21 10:07:53;;;;;;;;;16.25;14.75;;;27.28;97299.10;;;;116903;1197;25599;-57
2022/04/21 10:10:26;;;;;;;;;17.67;15.67;;;27.28;97299.55;;;;116676;1197;26087;-65
2022/04/21 10:12:55;;;;;;;;;25.33;15.67;;;27.23;97299.35;;;;116714;1197;26190;-61
2022/04/21 10:15:24;;;;;;;;;15.00;14.50;;;27.18;97298.33;;;;116923;1197;25687;-54
2022/04/21 10:17:52;;;;;;;;;20.50;17.50;;;27.15;97300.20;;;;116741;1195;25119;-57
2022/04/21 10:20:28;;;;;;;;;17.00;15.00;;;27.09;97295.93;;;;117178;1197;25602;-52
2022/04/21 10:22:57;;;;;;;;;14.75;14.75;;;27.16;97295.86;;;;116761;1196;25833;-54
2022/04/21 10:25:37;;;;;;;;;12.00;12.00;;;27.12;97293.52;;;;116757;1196;25310;-53
2022/04/21 10:28:41;;;;;;;;;19.00;18.67;;;27.12;97293.64;;;;116693;1197;25210;-59
2022/04/21 10:31:30;;;;;;;;;16.75;16.25;;;27.18;97293.48;;;;116907;1197;25257;-60
2022/04/21 10:34:04;;;;;;;;;21.00;16.00;;;27.28;97296.61;;;;116804;1197;25691;-58
2022/04/21 10:36:41;;;;;;;;;21.50;17.50;;;27.28;97293.56;;;;116745;1197;25367;-56
2022/04/21 10:39:16;;;;;;;;;17.75;16.00;;;27.28;97290.59;;;;116915;1197;25594;-55
2022/04/21 10:41:45;;;;;;;;;14.00;14.00;;;27.28;97287.20;;;;116805;1197;25628;-52
2022/04/21 10:44:15;;;;;;;;;18.67;15.00;;;27.25;97285.64;;;;116935;1197;25360;-56
2022/04/21 10:46:45;;;;;;;;;20.75;17.00;;;27.25;97288.11;;;;116801;1196;24867;-56
2022/04/21 10:49:53;;;;;;;;;14.00;13.50;;;27.25;97285.01;;;;116815;1196;25598;-59
2022/04/21 10:57:50;;;;;;;;;22.33;17.33;;;27.31;97284.93;;;;116856;1195;25753;-56
2022/04/21 11:00:29;;;;;;;;;14.33;13.67;;;27.25;97284.10;;;;116925;1197;25574;-67
2022/04/21 11:03:04;;;;;;;;;16.50;15.50;;;27.25;97284.64;;;;116885;1196;25615;-53
2022/04/21 11:05:42;;;;;;;;;15.50;15.50;;;27.25;97281.94;;;;116865;1196;24988;-57
2022/04/21 11:08:10;;;;;;;;;17.75;12.75;;;27.24;97284.33;;;;116816;1196;25215;-56
2022/04/21 11:10:38;;;;;;;;;17.00;16.00;;;27.27;97285.27;;;;116823;1197;25727;-56
2022/04/21 11:13:14;;;;;;;;;17.33;15.67;;;27.24;97288.39;;;;116908;1197;25377;-58
2022/04/21 11:15:47;;;;;;;;;13.50;8.50;;;27.25;97285.00;;;;116825;1196;25725;-58
2022/04/21 11:18:29;;;;;;;;;12.33;12.00;;;27.24;97284.52;;;;116902;1197;25637;-56
2022/04/21 11:21:22;;;;;;;;;19.00;17.00;;;27.26;97281.92;;;;116839;1196;24853;-56
2022/04/21 11:23:51;;;;;;;;;16.00;14.33;;;27.25;97283.42;;;;117056;1196;25209;-57
2022/04/21 11:26:30;;;;;;;;;14.75;14.75;;;27.29;97280.24;;;;117126;1196;26372;-60
2022/04/21 11:29:03;;;;;;;;;17.67;16.33;;;27.39;97279.60;;;;117057;1197;25061;-58
2022/04/21 11:31:31;;;;;;;;;16.50;13.00;;;27.39;97277.21;;;;116976;1197;25008;-56
2022/04/21 11:34:02;;;;;;;;;17.00;15.00;;;27.37;97279.68;;;;116899;1198;25016;-55
2022/04/21 11:36:35;;;;;;;;;17.00;14.00;;;27.33;97280.67;;;;116889;1197;24935;-55
2022/04/21 11:39:07;;;;;;;;;19.50;14.50;;;27.33;97278.20;;;;116927;1196;25502;-57
2022/04/21 11:41:41;;;;;;;;;12.50;12.25;;;27.32;97278.27;;;;116881;1196;24888;-52
2022/04/21 11:44:11;;;;;;;;;17.50;16.50;;;27.32;97278.13;;;;116928;1196;25082;-53
2022/04/21 11:46:40;;;;;;;;;16.50;14.50;;;27.33;97278.69;;;;117018;1197;25622;-52
2022/04/21 11:49:08;;;;;;;;;15.33;15.33;;;27.37;97273.89;;;;116997;1196;25514;-56
2022/04/21 11:51:51;;;;;;;;;15.00;10.00;;;27.40;97268.92;;;;117017;1197;25981;-49
2022/04/21 11:54:19;;;;;;;;;16.00;14.50;;;27.44;97274.98;;;;116887;1196;26308;-57
2022/04/21 11:56:51;;;;;;;;;17.67;16.67;;;27.39;97274.02;;;;116911;1196;25514;-50
2022/04/21 11:59:19;;;;;;;;;20.25;16.25;;;27.39;97277.11;;;;116822;1198;25192;-54
2022/04/21 12:07:25;;;;;;;;;17.00;14.75;;;27.54;97267.56;;;;117093;1191;26106;-52
2022/04/21 12:09:53;;;;;;;;;19.25;14.75;;;27.57;97269.75;;;;116826;1196;26369;-55
2022/04/21 12:12:22;;;;;;;;;10.75;10.75;;;27.49;97268.76;;;;117116;1196;25097;-53
2022/04/21 12:14:50;;;;;;;;;19.67;15.00;;;27.56;97266.09;;;;116674;1196;25183;-51
2022/04/21 12:17:20;;;;;;;;;17.33;15.33;;;27.53;97261.95;;;;116726;1198;25042;-55
2022/04/21 12:19:48;;;;;;;;;16.50;16.00;;;27.51;97261.61;;;;116879;1196;25672;-53
2022/04/21 12:22:17;;;;;;;;;15.33;13.33;;;27.48;97258.19;;;;116796;1197;25149;-57
2022/04/21 12:24:50;;;;;;;;;14.33;14.00;;;27.44;97256.52;;;;116772;1197;25464;-56
2022/04/21 12:27:25;;;;;;;;;13.00;12.33;;;27.47;97256.46;;;;116895;1197;25144;-62
2022/04/21 12:29:57;;;;;;;;;17.50;14.00;;;27.48;97254.18;;;;116994;1196;24825;-58
2022/04/21 12:32:27;;;;;;;;;20.50;17.00;;;27.50;97250.09;;;;117133;1197;25581;-55
2022/04/21 12:34:58;;;;;;;;;15.33;13.67;;;27.56;97247.36;;;;116905;1197;25359;-50
2022/04/21 12:37:28;;;;;;;;;15.00;15.00;;;27.55;97247.52;;;;116675;1197;25241;-51
2022/04/21 12:39:58;;;;;;;;;22.75;19.75;;;27.55;97247.64;;;;116904;1197;25539;-58
2022/04/21 12:42:47;;;;;;;;;27.50;22.00;;;27.61;97248.52;;;;116959;1196;25596;-56
2022/04/21 12:45:17;;;;;;;;;25.67;19.00;;;27.65;97251.29;;;;116651;1198;25699;-57
2022/04/21 12:47:47;;;;;;;;;24.67;21.00;;;27.63;97246.88;;;;116947;1197;25522;-55
2022/04/21 12:50:25;;;;;;;;;23.25;19.00;;;27.61;97245.70;;;;117239;1197;24944;-59
2022/04/21 12:52:57;;;;;;;;;16.00;15.00;;;27.73;97245.36;;;;116919;1196;25431;-57
2022/04/21 12:55:31;;;;;;;;;22.00;18.00;;;27.75;97233.80;;;;116877;1196;25600;-57
2022/04/21 12:58:06;;;;;;;;;16.00;15.50;;;27.75;97234.25;;;;116969;1197;24800;-55
2022/04/21 13:00:35;;;;;;;;;19.00;14.50;;;27.76;97230.15;;;;116847;1197;24840;-59
2022/04/21 13:03:05;;;;;;;;;26.33;21.33;;;27.74;97225.38;;;;117036;1197;24974;-57